sensor_id;sensor_type;location;lat;lon;timestamp;temperature;humidity
47434;SHT31;33184;48.774;8.918;2023-02-03T00:03:14;4.72;88.13
47434;SHT31;33184;48.774;8.918;2023-02-03T00:08:36;4.69;88.31
47434;SHT31;33184;48.774;8.918;2023-02-03T00:13:57;4.64;88.37
47434;SHT31;33184;48.774;8.918;2023-02-03T00:19:18;4.61;88.51
47434;SHT31;33184;48.774;8.918;2023-02-03T00:24:38;4.61;88.48
47434;SHT31;33184;48.774;8.918;2023-02-03T00:29:59;4.61;88.57
47434;SHT31;33184;48.774;8.918;2023-02-03T00:35:20;4.64;88.58
47434;SHT31;33184;48.774;8.918;2023-02-03T00:40:41;4.65;88.72
47434;SHT31;33184;48.774;8.918;2023-02-03T00:46:01;4.69;88.73
47434;SHT31;33184;48.774;8.918;2023-02-03T00:51:22;4.71;88.79
47434;SHT31;33184;48.774;8.918;2023-02-03T00:56:42;4.77;88.82
47434;SHT31;33184;48.774;8.918;2023-02-03T01:02:03;4.84;88.81
47434;SHT31;33184;48.774;8.918;2023-02-03T01:07:24;4.88;88.81
47434;SHT31;33184;48.774;8.918;2023-02-03T01:12:45;5.10;88.32
47434;SHT31;33184;48.774;8.918;2023-02-03T01:18:05;5.16;87.95
47434;SHT31;33184;48.774;8.918;2023-02-03T01:23:26;5.20;87.44
47434;SHT31;33184;48.774;8.918;2023-02-03T01:28:51;5.22;87.43
47434;SHT31;33184;48.774;8.918;2023-02-03T01:34:13;5.23;87.58
47434;SHT31;33184;48.774;8.918;2023-02-03T01:39:37;5.23;87.60
47434;SHT31;33184;48.774;8.918;2023-02-03T01:44:57;5.22;87.12
47434;SHT31;33184;48.774;8.918;2023-02-03T01:50:31;5.27;86.70
47434;SHT31;33184;48.774;8.918;2023-02-03T01:55:53;5.29;86.50
47434;SHT31;33184;48.774;8.918;2023-02-03T02:01:14;5.32;86.43
47434;SHT31;33184;48.774;8.918;2023-02-03T02:06:35;5.30;86.39
47434;SHT31;33184;48.774;8.918;2023-02-03T02:11:56;5.32;86.46
47434;SHT31;33184;48.774;8.918;2023-02-03T02:40:36;5.10;87.74
47434;SHT31;33184;48.774;8.918;2023-02-03T02:46:05;5.06;88.03
47434;SHT31;33184;48.774;8.918;2023-02-03T02:51:29;5.02;88.35
47434;SHT31;33184;48.774;8.918;2023-02-03T02:56:54;5.00;88.37
47434;SHT31;33184;48.774;8.918;2023-02-03T03:02:16;5.00;88.25
47434;SHT31;33184;48.774;8.918;2023-02-03T03:07:46;5.06;87.98
47434;SHT31;33184;48.774;8.918;2023-02-03T03:13:13;5.15;87.21
47434;SHT31;33184;48.774;8.918;2023-02-03T03:18:43;5.16;87.04
47434;SHT31;33184;48.774;8.918;2023-02-03T03:24:10;5.19;86.40
47434;SHT31;33184;48.774;8.918;2023-02-03T03:29:43;5.26;85.88
47434;SHT31;33184;48.774;8.918;2023-02-03T03:35:06;5.22;85.99
47434;SHT31;33184;48.774;8.918;2023-02-03T03:40:37;5.19;86.11
47434;SHT31;33184;48.774;8.918;2023-02-03T03:51:45;5.13;86.14
47434;SHT31;33184;48.774;8.918;2023-02-03T04:03:11;5.12;86.61
47434;SHT31;33184;48.774;8.918;2023-02-03T04:08:33;5.03;86.81
47434;SHT31;33184;48.774;8.918;2023-02-03T04:13:53;4.88;87.28
47434;SHT31;33184;48.774;8.918;2023-02-03T04:19:14;4.77;87.94
47434;SHT31;33184;48.774;8.918;2023-02-03T04:24:35;4.74;88.43
47434;SHT31;33184;48.774;8.918;2023-02-03T04:29:55;4.72;88.97
47434;SHT31;33184;48.774;8.918;2023-02-03T04:35:16;4.69;89.22
47434;SHT31;33184;48.774;8.918;2023-02-03T04:40:36;4.67;89.66
47434;SHT31;33184;48.774;8.918;2023-02-03T04:46:00;4.65;89.88
47434;SHT31;33184;48.774;8.918;2023-02-03T04:51:20;4.62;90.18
47434;SHT31;33184;48.774;8.918;2023-02-03T04:56:42;4.58;90.39
47434;SHT31;33184;48.774;8.918;2023-02-03T05:02:03;4.55;90.68
47434;SHT31;33184;48.774;8.918;2023-02-03T05:07:23;4.50;91.02
47434;SHT31;33184;48.774;8.918;2023-02-03T05:12:44;4.51;91.29
47434;SHT31;33184;48.774;8.918;2023-02-03T05:18:04;4.60;91.61
47434;SHT31;33184;48.774;8.918;2023-02-03T05:23:25;4.69;91.31
47434;SHT31;33184;48.774;8.918;2023-02-03T05:28:46;4.75;91.14
47434;SHT31;33184;48.774;8.918;2023-02-03T05:34:06;4.78;90.86
47434;SHT31;33184;48.774;8.918;2023-02-03T05:39:27;4.81;90.89
47434;SHT31;33184;48.774;8.918;2023-02-03T05:44:47;4.79;90.76
47434;SHT31;33184;48.774;8.918;2023-02-03T05:50:08;4.77;90.66
47434;SHT31;33184;48.774;8.918;2023-02-03T05:55:30;4.77;90.51
47434;SHT31;33184;48.774;8.918;2023-02-03T06:00:50;4.84;90.19
47434;SHT31;33184;48.774;8.918;2023-02-03T06:06:11;4.84;90.05
47434;SHT31;33184;48.774;8.918;2023-02-03T06:11:32;4.84;90.00
47434;SHT31;33184;48.774;8.918;2023-02-03T06:16:53;4.89;89.86
47434;SHT31;33184;48.774;8.918;2023-02-03T06:22:13;4.88;89.70
47434;SHT31;33184;48.774;8.918;2023-02-03T06:27:34;4.88;89.59
47434;SHT31;33184;48.774;8.918;2023-02-03T06:32:55;4.89;89.53
47434;SHT31;33184;48.774;8.918;2023-02-03T06:38:15;4.89;89.43
47434;SHT31;33184;48.774;8.918;2023-02-03T06:43:36;4.78;89.50
47434;SHT31;33184;48.774;8.918;2023-02-03T06:48:56;4.72;89.86
47434;SHT31;33184;48.774;8.918;2023-02-03T06:54:17;4.84;90.36
47434;SHT31;33184;48.774;8.918;2023-02-03T06:59:37;4.79;90.35
47434;SHT31;33184;48.774;8.918;2023-02-03T07:04:58;4.74;90.06
47434;SHT31;33184;48.774;8.918;2023-02-03T07:10:18;4.60;90.25
47434;SHT31;33184;48.774;8.918;2023-02-03T07:15:39;4.54;90.62
47434;SHT31;33184;48.774;8.918;2023-02-03T07:21:03;4.54;90.88
47434;SHT31;33184;48.774;8.918;2023-02-03T07:26:24;4.57;90.98
47434;SHT31;33184;48.774;8.918;2023-02-03T07:31:45;4.57;91.06
47434;SHT31;33184;48.774;8.918;2023-02-03T07:37:06;4.58;91.28
47434;SHT31;33184;48.774;8.918;2023-02-03T07:42:26;4.61;91.31
47434;SHT31;33184;48.774;8.918;2023-02-03T07:47:47;4.71;91.20
47434;SHT31;33184;48.774;8.918;2023-02-03T07:53:08;4.74;91.04
47434;SHT31;33184;48.774;8.918;2023-02-03T07:58:29;4.71;91.07
47434;SHT31;33184;48.774;8.918;2023-02-03T08:03:49;4.67;91.38
47434;SHT31;33184;48.774;8.918;2023-02-03T08:09:10;4.71;91.73
47434;SHT31;33184;48.774;8.918;2023-02-03T08:14:30;4.75;92.04
47434;SHT31;33184;48.774;8.918;2023-02-03T08:19:51;4.81;92.02
47434;SHT31;33184;48.774;8.918;2023-02-03T08:25:12;4.88;92.15
47434;SHT31;33184;48.774;8.918;2023-02-03T08:30:32;4.93;92.07
47434;SHT31;33184;48.774;8.918;2023-02-03T08:35:53;5.05;92.00
47434;SHT31;33184;48.774;8.918;2023-02-03T08:41:15;5.10;91.84
47434;SHT31;33184;48.774;8.918;2023-02-03T08:46:37;5.30;90.26
47434;SHT31;33184;48.774;8.918;2023-02-03T08:52:02;5.51;89.59
47434;SHT31;33184;48.774;8.918;2023-02-03T08:57:23;5.60;88.50
47434;SHT31;33184;48.774;8.918;2023-02-03T09:02:44;5.54;89.07
47434;SHT31;33184;48.774;8.918;2023-02-03T09:08:05;5.61;88.99
47434;SHT31;33184;48.774;8.918;2023-02-03T09:13:26;5.66;88.57
47434;SHT31;33184;48.774;8.918;2023-02-03T09:18:47;5.75;88.82
47434;SHT31;33184;48.774;8.918;2023-02-03T09:24:08;5.83;88.69
47434;SHT31;33184;48.774;8.918;2023-02-03T09:29:28;5.91;88.17
47434;SHT31;33184;48.774;8.918;2023-02-03T09:34:49;5.97;87.86
47434;SHT31;33184;48.774;8.918;2023-02-03T09:40:26;5.91;87.64
47434;SHT31;33184;48.774;8.918;2023-02-03T09:45:48;5.97;87.74
47434;SHT31;33184;48.774;8.918;2023-02-03T09:51:20;6.01;87.53
47434;SHT31;33184;48.774;8.918;2023-02-03T09:56:42;6.09;87.58
47434;SHT31;33184;48.774;8.918;2023-02-03T10:08:11;6.26;86.69
47434;SHT31;33184;48.774;8.918;2023-02-03T10:19:08;6.28;86.93
47434;SHT31;33184;48.774;8.918;2023-02-03T10:24:45;6.33;86.79
47434;SHT31;33184;48.774;8.918;2023-02-03T10:35:59;6.49;86.38
47434;SHT31;33184;48.774;8.918;2023-02-03T10:41:23;6.62;85.63
47434;SHT31;33184;48.774;8.918;2023-02-03T10:46:44;6.83;84.46
47434;SHT31;33184;48.774;8.918;2023-02-03T10:52:04;7.01;83.57
47434;SHT31;33184;48.774;8.918;2023-02-03T10:57:27;6.83;83.06
47434;SHT31;33184;48.774;8.918;2023-02-03T11:08:29;6.68;84.00
47434;SHT31;33184;48.774;8.918;2023-02-03T11:13:54;6.60;84.16
47434;SHT31;33184;48.774;8.918;2023-02-03T11:19:17;6.77;83.77
47434;SHT31;33184;48.774;8.918;2023-02-03T11:24:40;6.81;83.02
47434;SHT31;33184;48.774;8.918;2023-02-03T11:30:18;6.80;82.66
47434;SHT31;33184;48.774;8.918;2023-02-03T11:35:55;6.73;82.68
47434;SHT31;33184;48.774;8.918;2023-02-03T11:41:19;6.65;82.85
47434;SHT31;33184;48.774;8.918;2023-02-03T11:46:42;6.68;83.09
47434;SHT31;33184;48.774;8.918;2023-02-03T12:21:26;6.91;80.59
47434;SHT31;33184;48.774;8.918;2023-02-03T12:26:54;6.91;80.43
47434;SHT31;33184;48.774;8.918;2023-02-03T12:32:40;6.86;80.28
47434;SHT31;33184;48.774;8.918;2023-02-03T12:38:09;6.93;79.98
47434;SHT31;33184;48.774;8.918;2023-02-03T12:43:36;6.94;79.92
47434;SHT31;33184;48.774;8.918;2023-02-03T12:49:04;6.93;79.57
47434;SHT31;33184;48.774;8.918;2023-02-03T12:55:34;6.90;79.20
47434;SHT31;33184;48.774;8.918;2023-02-03T13:00:36;6.84;79.37
47434;SHT31;33184;48.774;8.918;2023-02-03T13:11:32;6.87;79.37
47434;SHT31;33184;48.774;8.918;2023-02-03T13:17:06;6.96;79.48
47434;SHT31;33184;48.774;8.918;2023-02-03T13:22:27;6.93;78.90
47434;SHT31;33184;48.774;8.918;2023-02-03T13:27:50;6.91;78.84
47434;SHT31;33184;48.774;8.918;2023-02-03T13:39:16;6.84;79.85
47434;SHT31;33184;48.774;8.918;2023-02-03T13:44:41;6.80;80.05
47434;SHT31;33184;48.774;8.918;2023-02-03T13:50:05;6.81;80.74
47434;SHT31;33184;48.774;8.918;2023-02-03T13:55:37;6.83;80.76
47434;SHT31;33184;48.774;8.918;2023-02-03T14:01:02;6.77;80.58
47434;SHT31;33184;48.774;8.918;2023-02-03T14:28:37;6.68;81.51
47434;SHT31;33184;48.774;8.918;2023-02-03T14:34:05;6.66;81.62
47434;SHT31;33184;48.774;8.918;2023-02-03T14:56:54;6.57;82.67
47434;SHT31;33184;48.774;8.918;2023-02-03T15:08:48;6.56;83.22
47434;SHT31;33184;48.774;8.918;2023-02-03T15:14:27;6.52;83.62
47434;SHT31;33184;48.774;8.918;2023-02-03T15:19:50;6.43;84.06
47434;SHT31;33184;48.774;8.918;2023-02-03T15:25:16;6.45;84.04
47434;SHT31;33184;48.774;8.918;2023-02-03T15:30:39;6.52;83.32
47434;SHT31;33184;48.774;8.918;2023-02-03T15:36:05;6.54;82.90
47434;SHT31;33184;48.774;8.918;2023-02-03T15:41:28;6.57;83.15
47434;SHT31;33184;48.774;8.918;2023-02-03T15:46:49;6.57;83.64
47434;SHT31;33184;48.774;8.918;2023-02-03T15:52:20;6.53;84.05
47434;SHT31;33184;48.774;8.918;2023-02-03T15:57:43;6.49;84.35
47434;SHT31;33184;48.774;8.918;2023-02-03T16:03:12;6.50;84.32
47434;SHT31;33184;48.774;8.918;2023-02-03T16:08:41;6.50;84.27
47434;SHT31;33184;48.774;8.918;2023-02-03T16:14:09;6.49;84.55
47434;SHT31;33184;48.774;8.918;2023-02-03T16:19:30;6.49;84.50
47434;SHT31;33184;48.774;8.918;2023-02-03T16:31:09;6.43;85.54
47434;SHT31;33184;48.774;8.918;2023-02-03T16:36:49;6.38;86.09
47434;SHT31;33184;48.774;8.918;2023-02-03T16:42:37;6.38;86.41
47434;SHT31;33184;48.774;8.918;2023-02-03T16:48:17;6.35;86.98
47434;SHT31;33184;48.774;8.918;2023-02-03T16:53:57;6.28;87.28
47434;SHT31;33184;48.774;8.918;2023-02-03T16:59:18;6.28;87.30
47434;SHT31;33184;48.774;8.918;2023-02-03T17:04:38;6.26;87.33
47434;SHT31;33184;48.774;8.918;2023-02-03T17:09:59;6.30;87.30
47434;SHT31;33184;48.774;8.918;2023-02-03T17:15:20;6.30;87.14
47434;SHT31;33184;48.774;8.918;2023-02-03T17:20:41;6.39;86.63
47434;SHT31;33184;48.774;8.918;2023-02-03T17:26:02;6.43;86.44
47434;SHT31;33184;48.774;8.918;2023-02-03T17:31:23;6.45;86.75
47434;SHT31;33184;48.774;8.918;2023-02-03T17:36:43;6.39;87.19
47434;SHT31;33184;48.774;8.918;2023-02-03T17:42:04;6.39;87.52
47434;SHT31;33184;48.774;8.918;2023-02-03T17:47:25;6.38;87.69
47434;SHT31;33184;48.774;8.918;2023-02-03T17:52:45;6.36;87.75
47434;SHT31;33184;48.774;8.918;2023-02-03T17:58:06;6.42;87.36
47434;SHT31;33184;48.774;8.918;2023-02-03T18:03:27;6.49;86.78
47434;SHT31;33184;48.774;8.918;2023-02-03T18:08:48;6.50;86.74
47434;SHT31;33184;48.774;8.918;2023-02-03T18:14:09;6.52;86.80
47434;SHT31;33184;48.774;8.918;2023-02-03T18:19:31;6.56;87.00
47434;SHT31;33184;48.774;8.918;2023-02-03T18:24:51;6.60;86.93
47434;SHT31;33184;48.774;8.918;2023-02-03T18:30:13;6.63;86.88
47434;SHT31;33184;48.774;8.918;2023-02-03T18:35:34;6.65;87.08
47434;SHT31;33184;48.774;8.918;2023-02-03T18:40:54;6.62;87.48
47434;SHT31;33184;48.774;8.918;2023-02-03T18:46:24;6.60;87.74
47434;SHT31;33184;48.774;8.918;2023-02-03T18:51:45;6.57;88.01
47434;SHT31;33184;48.774;8.918;2023-02-03T18:57:05;6.56;88.43
47434;SHT31;33184;48.774;8.918;2023-02-03T19:02:26;6.53;88.71
47434;SHT31;33184;48.774;8.918;2023-02-03T19:07:47;6.53;88.47
47434;SHT31;33184;48.774;8.918;2023-02-03T19:13:07;6.52;88.64
47434;SHT31;33184;48.774;8.918;2023-02-03T19:18:28;6.57;88.77
47434;SHT31;33184;48.774;8.918;2023-02-03T19:23:49;6.53;88.92
47434;SHT31;33184;48.774;8.918;2023-02-03T19:29:11;6.50;89.04
47434;SHT31;33184;48.774;8.918;2023-02-03T19:34:31;6.59;88.72
47434;SHT31;33184;48.774;8.918;2023-02-03T19:39:52;6.56;89.15
47434;SHT31;33184;48.774;8.918;2023-02-03T19:45:12;6.57;89.43
47434;SHT31;33184;48.774;8.918;2023-02-03T19:50:33;6.46;90.36
47434;SHT31;33184;48.774;8.918;2023-02-03T19:55:56;6.39;91.03
47434;SHT31;33184;48.774;8.918;2023-02-03T20:01:17;6.33;91.18
47434;SHT31;33184;48.774;8.918;2023-02-03T20:06:38;6.36;91.33
47434;SHT31;33184;48.774;8.918;2023-02-03T20:11:58;6.35;91.34
47434;SHT31;33184;48.774;8.918;2023-02-03T20:17:20;6.32;91.48
47434;SHT31;33184;48.774;8.918;2023-02-03T20:22:40;6.35;90.83
47434;SHT31;33184;48.774;8.918;2023-02-03T20:28:01;6.38;90.31
47434;SHT31;33184;48.774;8.918;2023-02-03T20:33:24;6.33;90.28
47434;SHT31;33184;48.774;8.918;2023-02-03T20:38:45;6.38;89.14
47434;SHT31;33184;48.774;8.918;2023-02-03T20:44:10;6.43;88.84
47434;SHT31;33184;48.774;8.918;2023-02-03T20:49:31;6.42;88.40
47434;SHT31;33184;48.774;8.918;2023-02-03T20:54:52;6.45;88.30
47434;SHT31;33184;48.774;8.918;2023-02-03T21:00:14;6.42;88.58
47434;SHT31;33184;48.774;8.918;2023-02-03T21:05:42;6.48;88.31
47434;SHT31;33184;48.774;8.918;2023-02-03T21:11:16;6.54;88.07
47434;SHT31;33184;48.774;8.918;2023-02-03T21:16:37;6.59;88.03
47434;SHT31;33184;48.774;8.918;2023-02-03T21:22:02;6.62;88.02
47434;SHT31;33184;48.774;8.918;2023-02-03T21:27:32;6.63;88.03
47434;SHT31;33184;48.774;8.918;2023-02-03T21:32:53;6.70;87.68
47434;SHT31;33184;48.774;8.918;2023-02-03T21:38:26;6.75;87.84
47434;SHT31;33184;48.774;8.918;2023-02-03T21:43:53;6.76;88.03
47434;SHT31;33184;48.774;8.918;2023-02-03T21:49:14;6.79;88.24
47434;SHT31;33184;48.774;8.918;2023-02-03T21:54:39;6.81;88.09
47434;SHT31;33184;48.774;8.918;2023-02-03T22:00:01;6.87;87.94
47434;SHT31;33184;48.774;8.918;2023-02-03T22:05:21;6.89;88.05
47434;SHT31;33184;48.774;8.918;2023-02-03T22:10:42;6.86;88.14
47434;SHT31;33184;48.774;8.918;2023-02-03T22:16:03;6.86;88.36
47434;SHT31;33184;48.774;8.918;2023-02-03T22:21:24;6.79;88.97
47434;SHT31;33184;48.774;8.918;2023-02-03T22:26:46;6.75;89.47
47434;SHT31;33184;48.774;8.918;2023-02-03T22:32:06;6.73;89.73
47434;SHT31;33184;48.774;8.918;2023-02-03T22:37:27;6.73;89.75
47434;SHT31;33184;48.774;8.918;2023-02-03T22:42:47;6.76;89.64
47434;SHT31;33184;48.774;8.918;2023-02-03T22:48:08;6.80;89.43
47434;SHT31;33184;48.774;8.918;2023-02-03T22:53:29;6.81;89.41
47434;SHT31;33184;48.774;8.918;2023-02-03T22:58:49;6.83;89.66
47434;SHT31;33184;48.774;8.918;2023-02-03T23:04:10;6.80;90.23
47434;SHT31;33184;48.774;8.918;2023-02-03T23:09:30;6.76;90.74
47434;SHT31;33184;48.774;8.918;2023-02-03T23:14:51;6.75;90.75
47434;SHT31;33184;48.774;8.918;2023-02-03T23:20:13;6.75;91.03
47434;SHT31;33184;48.774;8.918;2023-02-03T23:25:34;6.75;90.98
47434;SHT31;33184;48.774;8.918;2023-02-03T23:30:55;6.68;91.34
47434;SHT31;33184;48.774;8.918;2023-02-03T23:36:15;6.72;91.77
47434;SHT31;33184;48.774;8.918;2023-02-03T23:41:36;6.66;92.05
47434;SHT31;33184;48.774;8.918;2023-02-03T23:46:56;6.62;92.45
47434;SHT31;33184;48.774;8.918;2023-02-03T23:52:17;6.60;92.70
47434;SHT31;33184;48.774;8.918;2023-02-03T23:57:37;6.59;93.24
